sensor_id;sensor_type;location;lat;lon;timestamp;P1;durP1;ratioP1;P2;durP2;ratioP2
37445;SDS011;23307;51.136;14.942;2022-11-03T00:01:47;6.28;;;3.85;;
37445;SDS011;23307;51.136;14.942;2022-11-03T00:04:15;7.32;;;3.75;;
37445;SDS011;23307;51.136;14.942;2022-11-03T00:06:42;5.95;;;3.30;;
37445;SDS011;23307;51.136;14.942;2022-11-03T00:09:11;7.10;;;3.30;;
37445;SDS011;23307;51.136;14.942;2022-11-03T00:11:40;6.45;;;3.83;;
37445;SDS011;23307;51.136;14.942;2022-11-03T00:14:06;8.50;;;3.22;;
37445;SDS011;23307;51.136;14.942;2022-11-03T00:16:36;9.85;;;3.33;;
37445;SDS011;23307;51.136;14.942;2022-11-03T00:19:03;7.80;;;3.13;;
37445;SDS011;23307;51.136;14.942;2022-11-03T00:21:29;4.20;;;2.97;;
37445;SDS011;23307;51.136;14.942;2022-11-03T00:23:55;6.93;;;3.33;;
37445;SDS011;23307;51.136;14.942;2022-11-03T00:26:24;6.90;;;2.78;;
37445;SDS011;23307;51.136;14.942;2022-11-03T00:28:52;7.63;;;3.25;;
37445;SDS011;23307;51.136;14.942;2022-11-03T00:33:44;6.43;;;3.10;;
37445;SDS011;23307;51.136;14.942;2022-11-03T00:36:14;4.68;;;2.63;;
37445;SDS011;23307;51.136;14.942;2022-11-03T00:38:42;4.88;;;2.15;;
37445;SDS011;23307;51.136;14.942;2022-11-03T00:41:08;5.45;;;2.90;;
37445;SDS011;23307;51.136;14.942;2022-11-03T00:43:34;5.03;;;3.10;;
37445;SDS011;23307;51.136;14.942;2022-11-03T00:46:00;7.18;;;3.50;;
37445;SDS011;23307;51.136;14.942;2022-11-03T00:48:28;7.20;;;3.13;;
37445;SDS011;23307;51.136;14.942;2022-11-03T00:51:04;5.45;;;3.35;;
37445;SDS011;23307;51.136;14.942;2022-11-03T00:53:54;4.22;;;3.08;;
37445;SDS011;23307;51.136;14.942;2022-11-03T00:56:23;6.93;;;3.50;;
37445;SDS011;23307;51.136;14.942;2022-11-03T00:58:50;8.00;;;2.92;;
37445;SDS011;23307;51.136;14.942;2022-11-03T01:01:20;4.75;;;3.08;;
37445;SDS011;23307;51.136;14.942;2022-11-03T01:03:48;7.70;;;3.43;;
37445;SDS011;23307;51.136;14.942;2022-11-03T01:06:34;5.40;;;3.10;;
37445;SDS011;23307;51.136;14.942;2022-11-03T01:09:14;5.93;;;3.50;;
37445;SDS011;23307;51.136;14.942;2022-11-03T01:11:50;5.30;;;2.90;;
37445;SDS011;23307;51.136;14.942;2022-11-03T01:17:06;5.93;;;3.57;;
37445;SDS011;23307;51.136;14.942;2022-11-03T01:19:33;5.80;;;3.50;;
37445;SDS011;23307;51.136;14.942;2022-11-03T01:21:59;5.97;;;3.27;;
37445;SDS011;23307;51.136;14.942;2022-11-03T01:24:24;7.43;;;3.37;;
37445;SDS011;23307;51.136;14.942;2022-11-03T01:26:50;8.23;;;3.83;;
37445;SDS011;23307;51.136;14.942;2022-11-03T01:29:16;5.63;;;3.37;;
37445;SDS011;23307;51.136;14.942;2022-11-03T01:31:42;6.27;;;3.53;;
37445;SDS011;23307;51.136;14.942;2022-11-03T01:34:08;9.48;;;4.00;;
37445;SDS011;23307;51.136;14.942;2022-11-03T01:36:41;8.95;;;3.65;;
37445;SDS011;23307;51.136;14.942;2022-11-03T01:39:11;8.93;;;4.00;;
37445;SDS011;23307;51.136;14.942;2022-11-03T01:41:38;7.43;;;4.07;;
37445;SDS011;23307;51.136;14.942;2022-11-03T01:49:14;7.43;;;4.20;;
37445;SDS011;23307;51.136;14.942;2022-11-03T01:51:47;7.20;;;4.30;;
37445;SDS011;23307;51.136;14.942;2022-11-03T01:54:29;9.17;;;4.53;;
37445;SDS011;23307;51.136;14.942;2022-11-03T01:56:56;7.63;;;4.47;;
37445;SDS011;23307;51.136;14.942;2022-11-03T01:59:23;8.63;;;5.07;;
37445;SDS011;23307;51.136;14.942;2022-11-03T02:01:50;9.27;;;5.23;;
37445;SDS011;23307;51.136;14.942;2022-11-03T02:04:17;10.17;;;5.27;;
37445;SDS011;23307;51.136;14.942;2022-11-03T02:06:47;9.47;;;5.43;;
37445;SDS011;23307;51.136;14.942;2022-11-03T02:09:17;11.33;;;5.97;;
37445;SDS011;23307;51.136;14.942;2022-11-03T02:11:44;9.73;;;6.07;;
37445;SDS011;23307;51.136;14.942;2022-11-03T02:14:28;12.43;;;6.30;;
37445;SDS011;23307;51.136;14.942;2022-11-03T02:16:54;10.73;;;5.80;;
37445;SDS011;23307;51.136;14.942;2022-11-03T02:19:31;7.80;;;6.17;;
37445;SDS011;23307;51.136;14.942;2022-11-03T02:27:32;9.57;;;5.47;;
37445;SDS011;23307;51.136;14.942;2022-11-03T02:29:58;11.20;;;5.60;;
37445;SDS011;23307;51.136;14.942;2022-11-03T02:32:24;11.40;;;6.40;;
37445;SDS011;23307;51.136;14.942;2022-11-03T02:35:08;9.27;;;5.50;;
37445;SDS011;23307;51.136;14.942;2022-11-03T02:37:41;12.20;;;5.97;;
37445;SDS011;23307;51.136;14.942;2022-11-03T02:40:16;8.63;;;5.57;;
37445;SDS011;23307;51.136;14.942;2022-11-03T02:42:47;10.83;;;6.00;;
37445;SDS011;23307;51.136;14.942;2022-11-03T02:45:17;10.00;;;6.03;;
37445;SDS011;23307;51.136;14.942;2022-11-03T02:47:46;10.30;;;6.03;;
37445;SDS011;23307;51.136;14.942;2022-11-03T02:50:14;10.80;;;6.17;;
37445;SDS011;23307;51.136;14.942;2022-11-03T02:52:41;12.33;;;6.83;;
37445;SDS011;23307;51.136;14.942;2022-11-03T02:57:48;11.27;;;6.40;;
37445;SDS011;23307;51.136;14.942;2022-11-03T03:00:28;10.23;;;6.00;;
37445;SDS011;23307;51.136;14.942;2022-11-03T03:03:01;12.20;;;6.07;;
37445;SDS011;23307;51.136;14.942;2022-11-03T03:05:44;9.83;;;5.47;;
37445;SDS011;23307;51.136;14.942;2022-11-03T03:08:13;12.03;;;6.20;;
37445;SDS011;23307;51.136;14.942;2022-11-03T03:10:40;14.07;;;6.50;;
37445;SDS011;23307;51.136;14.942;2022-11-03T03:13:09;9.70;;;6.33;;
37445;SDS011;23307;51.136;14.942;2022-11-03T03:18:21;11.77;;;7.03;;
37445;SDS011;23307;51.136;14.942;2022-11-03T03:20:51;12.57;;;6.57;;
37445;SDS011;23307;51.136;14.942;2022-11-03T03:23:24;13.10;;;6.57;;
37445;SDS011;23307;51.136;14.942;2022-11-03T03:26:09;10.67;;;6.20;;
37445;SDS011;23307;51.136;14.942;2022-11-03T03:28:42;11.03;;;6.07;;
37445;SDS011;23307;51.136;14.942;2022-11-03T03:31:14;12.90;;;7.03;;
37445;SDS011;23307;51.136;14.942;2022-11-03T03:33:42;12.93;;;6.23;;
37445;SDS011;23307;51.136;14.942;2022-11-03T03:36:13;10.23;;;6.60;;
37445;SDS011;23307;51.136;14.942;2022-11-03T03:38:43;10.60;;;7.10;;
37445;SDS011;23307;51.136;14.942;2022-11-03T03:41:13;11.33;;;7.17;;
37445;SDS011;23307;51.136;14.942;2022-11-03T03:43:48;13.30;;;7.17;;
37445;SDS011;23307;51.136;14.942;2022-11-03T03:46:21;13.00;;;6.33;;
37445;SDS011;23307;51.136;14.942;2022-11-03T03:48:50;13.93;;;6.60;;
37445;SDS011;23307;51.136;14.942;2022-11-03T03:51:17;11.53;;;5.53;;
37445;SDS011;23307;51.136;14.942;2022-11-03T03:53:48;12.33;;;5.83;;
37445;SDS011;23307;51.136;14.942;2022-11-03T03:56:16;11.67;;;5.40;;
37445;SDS011;23307;51.136;14.942;2022-11-03T03:58:49;8.10;;;4.70;;
37445;SDS011;23307;51.136;14.942;2022-11-03T04:01:15;7.47;;;4.03;;
37445;SDS011;23307;51.136;14.942;2022-11-03T04:03:40;11.37;;;4.93;;
37445;SDS011;23307;51.136;14.942;2022-11-03T04:06:06;12.13;;;4.83;;
37445;SDS011;23307;51.136;14.942;2022-11-03T04:08:33;12.87;;;4.33;;
37445;SDS011;23307;51.136;14.942;2022-11-03T04:10:59;12.60;;;4.80;;
37445;SDS011;23307;51.136;14.942;2022-11-03T04:13:43;9.30;;;4.00;;
37445;SDS011;23307;51.136;14.942;2022-11-03T04:16:27;9.70;;;4.70;;
37445;SDS011;23307;51.136;14.942;2022-11-03T04:19:11;8.20;;;4.43;;
37445;SDS011;23307;51.136;14.942;2022-11-03T04:21:55;7.23;;;4.43;;
37445;SDS011;23307;51.136;14.942;2022-11-03T04:24:39;9.73;;;4.80;;
37445;SDS011;23307;51.136;14.942;2022-11-03T04:27:14;12.20;;;4.90;;
37445;SDS011;23307;51.136;14.942;2022-11-03T04:29:56;12.33;;;5.50;;
37445;SDS011;23307;51.136;14.942;2022-11-03T04:32:27;11.80;;;5.07;;
37445;SDS011;23307;51.136;14.942;2022-11-03T04:34:53;9.27;;;5.53;;
37445;SDS011;23307;51.136;14.942;2022-11-03T04:37:19;11.63;;;6.00;;
37445;SDS011;23307;51.136;14.942;2022-11-03T04:39:46;9.27;;;5.30;;
37445;SDS011;23307;51.136;14.942;2022-11-03T04:42:16;10.13;;;5.43;;
37445;SDS011;23307;51.136;14.942;2022-11-03T04:44:45;10.57;;;5.60;;
37445;SDS011;23307;51.136;14.942;2022-11-03T04:47:11;13.33;;;5.83;;
37445;SDS011;23307;51.136;14.942;2022-11-03T04:49:37;12.47;;;6.17;;
37445;SDS011;23307;51.136;14.942;2022-11-03T04:52:05;10.13;;;5.50;;
37445;SDS011;23307;51.136;14.942;2022-11-03T04:54:38;14.57;;;6.53;;
37445;SDS011;23307;51.136;14.942;2022-11-03T04:57:08;8.00;;;6.03;;
37445;SDS011;23307;51.136;14.942;2022-11-03T04:59:38;8.43;;;5.83;;
37445;SDS011;23307;51.136;14.942;2022-11-03T05:02:08;9.37;;;6.47;;
37445;SDS011;23307;51.136;14.942;2022-11-03T05:04:39;10.00;;;6.93;;
37445;SDS011;23307;51.136;14.942;2022-11-03T05:07:17;12.03;;;6.73;;
37445;SDS011;23307;51.136;14.942;2022-11-03T05:09:48;9.43;;;6.77;;
37445;SDS011;23307;51.136;14.942;2022-11-03T05:12:14;14.03;;;7.30;;
37445;SDS011;23307;51.136;14.942;2022-11-03T05:14:41;13.03;;;7.00;;
37445;SDS011;23307;51.136;14.942;2022-11-03T05:17:20;13.50;;;7.07;;
37445;SDS011;23307;51.136;14.942;2022-11-03T05:19:48;11.77;;;7.03;;
37445;SDS011;23307;51.136;14.942;2022-11-03T05:22:21;15.43;;;7.10;;
37445;SDS011;23307;51.136;14.942;2022-11-03T05:24:50;10.93;;;7.47;;
37445;SDS011;23307;51.136;14.942;2022-11-03T05:27:22;15.23;;;7.10;;
37445;SDS011;23307;51.136;14.942;2022-11-03T05:29:48;10.93;;;7.50;;
37445;SDS011;23307;51.136;14.942;2022-11-03T05:32:18;16.03;;;7.07;;
37445;SDS011;23307;51.136;14.942;2022-11-03T05:34:50;12.53;;;7.50;;
37445;SDS011;23307;51.136;14.942;2022-11-03T05:39:48;12.53;;;7.70;;
37445;SDS011;23307;51.136;14.942;2022-11-03T05:42:23;19.13;;;10.00;;
37445;SDS011;23307;51.136;14.942;2022-11-03T05:44:57;15.83;;;8.70;;
37445;SDS011;23307;51.136;14.942;2022-11-03T05:52:44;17.40;;;9.50;;
37445;SDS011;23307;51.136;14.942;2022-11-03T05:55:19;18.33;;;9.10;;
37445;SDS011;23307;51.136;14.942;2022-11-03T05:57:53;21.37;;;10.23;;
37445;SDS011;23307;51.136;14.942;2022-11-03T06:00:23;19.57;;;9.70;;
37445;SDS011;23307;51.136;14.942;2022-11-03T06:02:55;15.13;;;9.10;;
37445;SDS011;23307;51.136;14.942;2022-11-03T06:05:22;12.53;;;7.13;;
37445;SDS011;23307;51.136;14.942;2022-11-03T06:07:50;15.33;;;8.10;;
37445;SDS011;23307;51.136;14.942;2022-11-03T06:10:24;12.60;;;7.40;;
37445;SDS011;23307;51.136;14.942;2022-11-03T06:12:50;13.67;;;8.10;;
37445;SDS011;23307;51.136;14.942;2022-11-03T06:15:23;11.47;;;7.20;;
37445;SDS011;23307;51.136;14.942;2022-11-03T06:17:55;10.23;;;6.97;;
37445;SDS011;23307;51.136;14.942;2022-11-03T06:20:21;12.80;;;6.63;;
37445;SDS011;23307;51.136;14.942;2022-11-03T06:22:47;10.80;;;6.47;;
37445;SDS011;23307;51.136;14.942;2022-11-03T06:27:53;9.30;;;5.67;;
37445;SDS011;23307;51.136;14.942;2022-11-03T06:32:53;11.73;;;5.60;;
37445;SDS011;23307;51.136;14.942;2022-11-03T06:35:24;12.10;;;5.70;;
37445;SDS011;23307;51.136;14.942;2022-11-03T06:37:50;7.87;;;4.63;;
37445;SDS011;23307;51.136;14.942;2022-11-03T06:42:42;11.30;;;4.97;;
37445;SDS011;23307;51.136;14.942;2022-11-03T06:45:26;12.57;;;4.73;;
37445;SDS011;23307;51.136;14.942;2022-11-03T06:47:53;10.77;;;5.53;;
37445;SDS011;23307;51.136;14.942;2022-11-03T06:52:48;7.63;;;4.63;;
37445;SDS011;23307;51.136;14.942;2022-11-03T06:57:50;7.87;;;4.70;;
37445;SDS011;23307;51.136;14.942;2022-11-03T07:05:27;7.43;;;3.67;;
37445;SDS011;23307;51.136;14.942;2022-11-03T07:07:57;9.13;;;5.43;;
37445;SDS011;23307;51.136;14.942;2022-11-03T07:10:27;11.43;;;5.77;;
37445;SDS011;23307;51.136;14.942;2022-11-03T07:12:55;8.53;;;5.90;;
37445;SDS011;23307;51.136;14.942;2022-11-03T07:15:27;8.77;;;5.77;;
37445;SDS011;23307;51.136;14.942;2022-11-03T07:17:56;11.20;;;4.83;;
37445;SDS011;23307;51.136;14.942;2022-11-03T07:20:26;7.37;;;4.30;;
37445;SDS011;23307;51.136;14.942;2022-11-03T07:22:55;8.93;;;4.27;;
37445;SDS011;23307;51.136;14.942;2022-11-03T07:25:24;7.57;;;4.10;;
37445;SDS011;23307;51.136;14.942;2022-11-03T07:27:50;12.27;;;4.00;;
37445;SDS011;23307;51.136;14.942;2022-11-03T07:30:22;10.70;;;3.70;;
37445;SDS011;23307;51.136;14.942;2022-11-03T07:32:52;8.13;;;3.93;;
37445;SDS011;23307;51.136;14.942;2022-11-03T07:37:52;9.33;;;4.40;;
37445;SDS011;23307;51.136;14.942;2022-11-03T07:40:25;8.53;;;3.67;;
37445;SDS011;23307;51.136;14.942;2022-11-03T07:42:54;7.65;;;3.80;;
37445;SDS011;23307;51.136;14.942;2022-11-03T07:48:13;7.80;;;3.10;;
37445;SDS011;23307;51.136;14.942;2022-11-03T07:50:45;8.00;;;3.07;;
37445;SDS011;23307;51.136;14.942;2022-11-03T07:53:19;8.30;;;2.83;;
37445;SDS011;23307;51.136;14.942;2022-11-03T07:55:48;6.90;;;2.40;;
37445;SDS011;23307;51.136;14.942;2022-11-03T07:58:27;5.80;;;2.63;;
37445;SDS011;23307;51.136;14.942;2022-11-03T08:01:01;4.60;;;1.95;;
37445;SDS011;23307;51.136;14.942;2022-11-03T08:03:43;5.00;;;2.08;;
37445;SDS011;23307;51.136;14.942;2022-11-03T08:06:11;5.53;;;1.95;;
37445;SDS011;23307;51.136;14.942;2022-11-03T08:08:37;3.85;;;1.70;;
37445;SDS011;23307;51.136;14.942;2022-11-03T08:11:03;7.50;;;1.98;;
37445;SDS011;23307;51.136;14.942;2022-11-03T08:13:29;4.88;;;1.88;;
37445;SDS011;23307;51.136;14.942;2022-11-03T08:15:55;6.90;;;2.42;;
37445;SDS011;23307;51.136;14.942;2022-11-03T08:18:21;5.38;;;2.22;;
37445;SDS011;23307;51.136;14.942;2022-11-03T08:20:47;4.25;;;1.90;;
37445;SDS011;23307;51.136;14.942;2022-11-03T08:23:12;7.68;;;2.45;;
37445;SDS011;23307;51.136;14.942;2022-11-03T08:25:38;6.38;;;2.08;;
37445;SDS011;23307;51.136;14.942;2022-11-03T08:28:04;4.55;;;1.88;;
37445;SDS011;23307;51.136;14.942;2022-11-03T08:30:29;5.47;;;1.90;;
37445;SDS011;23307;51.136;14.942;2022-11-03T08:32:55;9.52;;;2.28;;
37445;SDS011;23307;51.136;14.942;2022-11-03T08:35:21;4.00;;;1.90;;
37445;SDS011;23307;51.136;14.942;2022-11-03T08:37:47;5.55;;;2.13;;
37445;SDS011;23307;51.136;14.942;2022-11-03T08:40:12;7.30;;;2.03;;
37445;SDS011;23307;51.136;14.942;2022-11-03T08:42:38;5.38;;;2.15;;
37445;SDS011;23307;51.136;14.942;2022-11-03T08:45:04;4.13;;;1.60;;
37445;SDS011;23307;51.136;14.942;2022-11-03T08:47:30;3.85;;;1.98;;
37445;SDS011;23307;51.136;14.942;2022-11-03T08:49:56;3.20;;;2.10;;
37445;SDS011;23307;51.136;14.942;2022-11-03T08:52:22;3.60;;;1.90;;
37445;SDS011;23307;51.136;14.942;2022-11-03T08:54:48;6.45;;;2.88;;
37445;SDS011;23307;51.136;14.942;2022-11-03T08:57:13;9.40;;;6.15;;
37445;SDS011;23307;51.136;14.942;2022-11-03T08:59:39;3.90;;;1.77;;
37445;SDS011;23307;51.136;14.942;2022-11-03T09:02:05;3.45;;;1.55;;
37445;SDS011;23307;51.136;14.942;2022-11-03T09:04:31;7.70;;;1.85;;
37445;SDS011;23307;51.136;14.942;2022-11-03T09:06:56;7.38;;;1.73;;
37445;SDS011;23307;51.136;14.942;2022-11-03T09:09:22;4.55;;;1.60;;
37445;SDS011;23307;51.136;14.942;2022-11-03T09:11:47;6.28;;;1.70;;
37445;SDS011;23307;51.136;14.942;2022-11-03T09:14:13;2.85;;;1.48;;
37445;SDS011;23307;51.136;14.942;2022-11-03T09:16:38;5.55;;;1.83;;
37445;SDS011;23307;51.136;14.942;2022-11-03T09:19:04;3.00;;;1.63;;
37445;SDS011;23307;51.136;14.942;2022-11-03T09:21:30;6.97;;;1.90;;
37445;SDS011;23307;51.136;14.942;2022-11-03T09:23:55;4.75;;;1.30;;
37445;SDS011;23307;51.136;14.942;2022-11-03T09:26:23;5.78;;;1.63;;
37445;SDS011;23307;51.136;14.942;2022-11-03T09:28:49;3.72;;;1.90;;
37445;SDS011;23307;51.136;14.942;2022-11-03T09:31:15;6.60;;;1.33;;
37445;SDS011;23307;51.136;14.942;2022-11-03T09:33:41;2.38;;;1.23;;
37445;SDS011;23307;51.136;14.942;2022-11-03T09:36:06;4.93;;;1.45;;
37445;SDS011;23307;51.136;14.942;2022-11-03T09:38:32;3.00;;;1.48;;
37445;SDS011;23307;51.136;14.942;2022-11-03T09:40:58;3.38;;;1.52;;
37445;SDS011;23307;51.136;14.942;2022-11-03T09:43:24;4.50;;;1.90;;
37445;SDS011;23307;51.136;14.942;2022-11-03T09:45:49;2.63;;;1.23;;
37445;SDS011;23307;51.136;14.942;2022-11-03T09:48:15;5.43;;;1.50;;
37445;SDS011;23307;51.136;14.942;2022-11-03T09:50:41;4.22;;;1.65;;
37445;SDS011;23307;51.136;14.942;2022-11-03T09:53:10;4.22;;;1.80;;
37445;SDS011;23307;51.136;14.942;2022-11-03T09:55:36;3.58;;;1.50;;
37445;SDS011;23307;51.136;14.942;2022-11-03T09:58:11;3.03;;;1.50;;
37445;SDS011;23307;51.136;14.942;2022-11-03T10:00:39;3.97;;;1.58;;
37445;SDS011;23307;51.136;14.942;2022-11-03T10:03:05;4.70;;;1.75;;
37445;SDS011;23307;51.136;14.942;2022-11-03T10:05:37;6.03;;;2.05;;
37445;SDS011;23307;51.136;14.942;2022-11-03T10:08:04;2.70;;;1.25;;
37445;SDS011;23307;51.136;14.942;2022-11-03T10:10:35;3.60;;;1.40;;
37445;SDS011;23307;51.136;14.942;2022-11-03T10:13:01;4.07;;;1.40;;
37445;SDS011;23307;51.136;14.942;2022-11-03T10:15:32;5.03;;;1.40;;
37445;SDS011;23307;51.136;14.942;2022-11-03T10:17:59;4.97;;;1.60;;
37445;SDS011;23307;51.136;14.942;2022-11-03T10:20:27;4.35;;;1.67;;
37445;SDS011;23307;51.136;14.942;2022-11-03T10:22:53;4.15;;;1.70;;
37445;SDS011;23307;51.136;14.942;2022-11-03T10:25:38;3.85;;;1.60;;
37445;SDS011;23307;51.136;14.942;2022-11-03T10:28:21;4.03;;;1.60;;
37445;SDS011;23307;51.136;14.942;2022-11-03T10:36:01;3.08;;;1.30;;
37445;SDS011;23307;51.136;14.942;2022-11-03T10:38:29;6.22;;;1.60;;
37445;SDS011;23307;51.136;14.942;2022-11-03T10:41:09;4.28;;;1.88;;
37445;SDS011;23307;51.136;14.942;2022-11-03T10:43:40;4.20;;;1.80;;
37445;SDS011;23307;51.136;14.942;2022-11-03T10:46:11;2.55;;;1.40;;
37445;SDS011;23307;51.136;14.942;2022-11-03T10:48:42;3.05;;;1.35;;
37445;SDS011;23307;51.136;14.942;2022-11-03T10:51:11;3.55;;;1.70;;
37445;SDS011;23307;51.136;14.942;2022-11-03T10:53:38;7.93;;;1.70;;
37445;SDS011;23307;51.136;14.942;2022-11-03T10:56:04;5.97;;;1.85;;
37445;SDS011;23307;51.136;14.942;2022-11-03T10:58:30;4.32;;;1.20;;
37445;SDS011;23307;51.136;14.942;2022-11-03T11:00:58;5.20;;;1.73;;
37445;SDS011;23307;51.136;14.942;2022-11-03T11:03:24;5.18;;;1.65;;
37445;SDS011;23307;51.136;14.942;2022-11-03T11:05:49;6.15;;;1.83;;
37445;SDS011;23307;51.136;14.942;2022-11-03T11:08:20;6.20;;;1.52;;
37445;SDS011;23307;51.136;14.942;2022-11-03T11:10:47;4.00;;;1.50;;
37445;SDS011;23307;51.136;14.942;2022-11-03T11:15:49;6.05;;;1.75;;
37445;SDS011;23307;51.136;14.942;2022-11-03T11:20:54;4.13;;;1.50;;
37445;SDS011;23307;51.136;14.942;2022-11-03T11:28:40;6.22;;;1.95;;
37445;SDS011;23307;51.136;14.942;2022-11-03T11:34:17;4.60;;;1.83;;
37445;SDS011;23307;51.136;14.942;2022-11-03T11:36:44;3.58;;;1.60;;
37445;SDS011;23307;51.136;14.942;2022-11-03T11:42:07;4.88;;;2.10;;
37445;SDS011;23307;51.136;14.942;2022-11-03T11:47:34;3.60;;;1.50;;
37445;SDS011;23307;51.136;14.942;2022-11-03T11:50:14;3.80;;;1.83;;
37445;SDS011;23307;51.136;14.942;2022-11-03T11:52:45;3.25;;;1.90;;
37445;SDS011;23307;51.136;14.942;2022-11-03T11:58:16;4.43;;;2.08;;
37445;SDS011;23307;51.136;14.942;2022-11-03T12:00:59;2.80;;;1.50;;
37445;SDS011;23307;51.136;14.942;2022-11-03T12:03:31;4.40;;;1.75;;
37445;SDS011;23307;51.136;14.942;2022-11-03T12:06:02;5.20;;;2.05;;
37445;SDS011;23307;51.136;14.942;2022-11-03T12:08:30;3.67;;;1.77;;
37445;SDS011;23307;51.136;14.942;2022-11-03T12:10:57;3.22;;;1.80;;
37445;SDS011;23307;51.136;14.942;2022-11-03T12:13:35;4.88;;;1.70;;
37445;SDS011;23307;51.136;14.942;2022-11-03T12:16:09;8.73;;;2.50;;
37445;SDS011;23307;51.136;14.942;2022-11-03T12:18:51;3.92;;;2.08;;
37445;SDS011;23307;51.136;14.942;2022-11-03T12:26:54;2.67;;;1.90;;
37445;SDS011;23307;51.136;14.942;2022-11-03T12:29:20;4.43;;;1.75;;
37445;SDS011;23307;51.136;14.942;2022-11-03T12:31:46;6.32;;;2.28;;
37445;SDS011;23307;51.136;14.942;2022-11-03T12:34:12;4.35;;;2.03;;
37445;SDS011;23307;51.136;14.942;2022-11-03T12:36:38;4.22;;;2.20;;
37445;SDS011;23307;51.136;14.942;2022-11-03T12:39:04;3.92;;;2.53;;
37445;SDS011;23307;51.136;14.942;2022-11-03T12:41:29;4.78;;;2.58;;
37445;SDS011;23307;51.136;14.942;2022-11-03T12:43:55;6.40;;;2.70;;
37445;SDS011;23307;51.136;14.942;2022-11-03T12:46:21;5.15;;;2.28;;
37445;SDS011;23307;51.136;14.942;2022-11-03T12:48:47;3.92;;;2.38;;
37445;SDS011;23307;51.136;14.942;2022-11-03T12:51:14;4.22;;;2.47;;
37445;SDS011;23307;51.136;14.942;2022-11-03T12:53:40;4.95;;;2.33;;
37445;SDS011;23307;51.136;14.942;2022-11-03T12:56:06;6.65;;;2.30;;
37445;SDS011;23307;51.136;14.942;2022-11-03T12:58:32;4.30;;;2.42;;
37445;SDS011;23307;51.136;14.942;2022-11-03T13:00:58;7.32;;;2.50;;
37445;SDS011;23307;51.136;14.942;2022-11-03T13:03:24;2.83;;;1.92;;
37445;SDS011;23307;51.136;14.942;2022-11-03T13:05:50;6.38;;;2.08;;
37445;SDS011;23307;51.136;14.942;2022-11-03T13:08:15;4.40;;;2.28;;
37445;SDS011;23307;51.136;14.942;2022-11-03T13:10:41;5.22;;;2.63;;
37445;SDS011;23307;51.136;14.942;2022-11-03T13:13:06;3.90;;;2.38;;
37445;SDS011;23307;51.136;14.942;2022-11-03T13:15:32;7.50;;;2.70;;
37445;SDS011;23307;51.136;14.942;2022-11-03T13:17:58;4.47;;;2.20;;
37445;SDS011;23307;51.136;14.942;2022-11-03T13:20:23;4.53;;;2.30;;
37445;SDS011;23307;51.136;14.942;2022-11-03T13:22:49;4.25;;;2.35;;
37445;SDS011;23307;51.136;14.942;2022-11-03T13:25:15;6.82;;;2.63;;
37445;SDS011;23307;51.136;14.942;2022-11-03T13:27:41;4.75;;;2.30;;
37445;SDS011;23307;51.136;14.942;2022-11-03T13:30:07;4.13;;;2.40;;
37445;SDS011;23307;51.136;14.942;2022-11-03T13:32:33;4.63;;;2.85;;
37445;SDS011;23307;51.136;14.942;2022-11-03T13:34:58;5.22;;;2.40;;
37445;SDS011;23307;51.136;14.942;2022-11-03T13:37:24;6.13;;;2.17;;
37445;SDS011;23307;51.136;14.942;2022-11-03T13:39:49;4.57;;;2.47;;
37445;SDS011;23307;51.136;14.942;2022-11-03T13:42:15;4.93;;;2.25;;
37445;SDS011;23307;51.136;14.942;2022-11-03T13:44:41;5.32;;;2.53;;
37445;SDS011;23307;51.136;14.942;2022-11-03T13:47:06;4.47;;;2.15;;
37445;SDS011;23307;51.136;14.942;2022-11-03T13:49:32;4.18;;;2.83;;
37445;SDS011;23307;51.136;14.942;2022-11-03T13:51:57;4.70;;;2.40;;
37445;SDS011;23307;51.136;14.942;2022-11-03T13:54:23;4.53;;;2.40;;
37445;SDS011;23307;51.136;14.942;2022-11-03T13:56:49;6.13;;;3.28;;
37445;SDS011;23307;51.136;14.942;2022-11-03T13:59:14;6.15;;;3.20;;
37445;SDS011;23307;51.136;14.942;2022-11-03T14:01:40;9.02;;;3.60;;
37445;SDS011;23307;51.136;14.942;2022-11-03T14:04:05;9.52;;;4.90;;
37445;SDS011;23307;51.136;14.942;2022-11-03T14:06:31;8.45;;;3.90;;
37445;SDS011;23307;51.136;14.942;2022-11-03T14:08:57;9.32;;;5.45;;
37445;SDS011;23307;51.136;14.942;2022-11-03T14:11:22;9.63;;;6.95;;
37445;SDS011;23307;51.136;14.942;2022-11-03T14:14:07;8.90;;;4.35;;
37445;SDS011;23307;51.136;14.942;2022-11-03T14:16:32;6.05;;;3.83;;
37445;SDS011;23307;51.136;14.942;2022-11-03T14:18:58;7.25;;;3.83;;
37445;SDS011;23307;51.136;14.942;2022-11-03T14:21:23;7.28;;;4.15;;
37445;SDS011;23307;51.136;14.942;2022-11-03T14:23:49;9.77;;;3.90;;
37445;SDS011;23307;51.136;14.942;2022-11-03T14:26:14;6.65;;;4.10;;
37445;SDS011;23307;51.136;14.942;2022-11-03T14:28:40;6.53;;;3.78;;
37445;SDS011;23307;51.136;14.942;2022-11-03T14:31:05;6.45;;;3.47;;
37445;SDS011;23307;51.136;14.942;2022-11-03T14:33:31;6.15;;;3.88;;
37445;SDS011;23307;51.136;14.942;2022-11-03T14:35:56;10.60;;;6.57;;
37445;SDS011;23307;51.136;14.942;2022-11-03T14:38:22;7.25;;;4.18;;
37445;SDS011;23307;51.136;14.942;2022-11-03T14:40:48;6.60;;;3.80;;
37445;SDS011;23307;51.136;14.942;2022-11-03T14:43:32;6.03;;;3.70;;
37445;SDS011;23307;51.136;14.942;2022-11-03T14:45:58;6.32;;;3.90;;
37445;SDS011;23307;51.136;14.942;2022-11-03T14:48:23;5.65;;;3.85;;
37445;SDS011;23307;51.136;14.942;2022-11-03T14:50:49;7.00;;;4.55;;
37445;SDS011;23307;51.136;14.942;2022-11-03T14:53:14;8.40;;;4.20;;
37445;SDS011;23307;51.136;14.942;2022-11-03T14:55:40;8.80;;;4.03;;
37445;SDS011;23307;51.136;14.942;2022-11-03T14:58:05;8.95;;;5.43;;
37445;SDS011;23307;51.136;14.942;2022-11-03T15:00:31;18.90;;;9.02;;
37445;SDS011;23307;51.136;14.942;2022-11-03T15:02:56;20.48;;;13.50;;
37445;SDS011;23307;51.136;14.942;2022-11-03T15:05:22;16.50;;;9.40;;
37445;SDS011;23307;51.136;14.942;2022-11-03T15:08:06;15.65;;;10.90;;
37445;SDS011;23307;51.136;14.942;2022-11-03T15:10:31;7.50;;;4.95;;
37445;SDS011;23307;51.136;14.942;2022-11-03T15:12:57;6.20;;;3.65;;
37445;SDS011;23307;51.136;14.942;2022-11-03T15:15:22;8.85;;;4.43;;
37445;SDS011;23307;51.136;14.942;2022-11-03T15:17:48;7.70;;;3.90;;
37445;SDS011;23307;51.136;14.942;2022-11-03T15:20:13;8.25;;;4.15;;
37445;SDS011;23307;51.136;14.942;2022-11-03T15:22:39;7.70;;;3.30;;
37445;SDS011;23307;51.136;14.942;2022-11-03T15:25:04;6.20;;;4.00;;
37445;SDS011;23307;51.136;14.942;2022-11-03T15:27:30;6.63;;;3.22;;
37445;SDS011;23307;51.136;14.942;2022-11-03T15:29:56;6.97;;;3.47;;
37445;SDS011;23307;51.136;14.942;2022-11-03T15:32:21;8.05;;;3.80;;
37445;SDS011;23307;51.136;14.942;2022-11-03T15:34:47;8.02;;;3.83;;
37445;SDS011;23307;51.136;14.942;2022-11-03T15:37:12;6.22;;;3.72;;
37445;SDS011;23307;51.136;14.942;2022-11-03T15:39:39;9.82;;;4.30;;
37445;SDS011;23307;51.136;14.942;2022-11-03T15:42:05;5.60;;;4.03;;
37445;SDS011;23307;51.136;14.942;2022-11-03T15:44:30;8.63;;;4.43;;
37445;SDS011;23307;51.136;14.942;2022-11-03T15:46:56;8.20;;;4.90;;
37445;SDS011;23307;51.136;14.942;2022-11-03T15:49:21;10.50;;;4.90;;
37445;SDS011;23307;51.136;14.942;2022-11-03T15:51:47;10.00;;;5.00;;
37445;SDS011;23307;51.136;14.942;2022-11-03T15:54:12;10.93;;;4.82;;
37445;SDS011;23307;51.136;14.942;2022-11-03T15:56:38;10.80;;;4.72;;
37445;SDS011;23307;51.136;14.942;2022-11-03T15:59:03;6.75;;;3.67;;
37445;SDS011;23307;51.136;14.942;2022-11-03T16:01:29;9.57;;;4.07;;
37445;SDS011;23307;51.136;14.942;2022-11-03T16:03:54;11.02;;;3.92;;
37445;SDS011;23307;51.136;14.942;2022-11-03T16:06:20;6.53;;;4.45;;